createdAt,value
2022-10-19T00:01:18.455Z,59.05
2022-10-19T00:06:21.734Z,59.58
2022-10-19T00:08:48.825Z,60.41
2022-10-19T00:11:15.596Z,60.18
2022-10-19T00:13:42.737Z,60.13
2022-10-19T00:16:13.261Z,59.83
2022-10-19T00:18:41.610Z,60.04
2022-10-19T00:21:10.334Z,59.92
2022-10-19T00:23:37.433Z,61.25
2022-10-19T00:26:04.692Z,60.67
2022-10-19T00:28:31.671Z,60.49
2022-10-19T00:31:06.637Z,60.47
2022-10-19T00:33:34.412Z,60.46
2022-10-19T00:36:01.779Z,60.43
2022-10-19T00:38:28.553Z,60.25
2022-10-19T00:40:55.866Z,60.19
2022-10-19T00:43:25.888Z,61.29
2022-10-19T00:45:53.256Z,60.77
2022-10-19T00:48:26.452Z,60.97
2022-10-19T00:50:56.138Z,60.78
2022-10-19T00:53:26.192Z,60.12
2022-10-19T00:55:54.352Z,59.84
2022-10-19T00:58:21.216Z,60.42
2022-10-19T01:00:48.351Z,61.02
2022-10-19T01:03:15.414Z,61.36
2022-10-19T01:05:42.871Z,61.50
2022-10-19T01:08:10.529Z,61.30
2022-10-19T01:10:58.448Z,61.34
2022-10-19T01:13:44.828Z,60.57
2022-10-19T01:16:37.029Z,60.62
2022-10-19T01:19:34.201Z,61.42
2022-10-19T01:22:22.792Z,61.21
2022-10-19T01:24:57.470Z,60.68
2022-10-19T01:27:51.956Z,61.53
2022-10-19T01:30:54.609Z,62.30
2022-10-19T01:36:33.051Z,62.86
2022-10-19T01:39:44.287Z,62.45
2022-10-19T01:42:36.349Z,61.75
2022-10-19T01:45:14.177Z,61.62
2022-10-19T01:47:55.769Z,62.38
2022-10-19T01:50:36.134Z,62.02
2022-10-19T01:53:07.452Z,62.70
2022-10-19T01:55:38.113Z,64.63
2022-10-19T01:58:10.112Z,63.48
2022-10-19T02:00:42.684Z,63.04
2022-10-19T02:03:12.332Z,63.01
2022-10-19T02:05:41.587Z,62.07
2022-10-19T02:08:21.139Z,62.62
2022-10-19T02:10:48.379Z,63.60
2022-10-19T02:13:17.023Z,63.16
2022-10-19T02:15:50.359Z,62.87
2022-10-19T02:18:22.398Z,63.44
2022-10-19T02:20:49.310Z,63.44
2022-10-19T02:23:19.291Z,63.31
2022-10-19T02:25:46.533Z,63.43
2022-10-19T02:28:13.543Z,64.43
2022-10-19T02:30:40.799Z,63.84
2022-10-19T02:33:07.854Z,63.67
2022-10-19T02:35:35.175Z,63.42
2022-10-19T02:38:04.740Z,64.27
2022-10-19T02:40:36.817Z,64.04
2022-10-19T02:43:12.791Z,64.29
2022-10-19T02:45:48.793Z,63.75
2022-10-19T02:48:21.751Z,64.46
2022-10-19T02:50:49.221Z,64.91
2022-10-19T02:53:16.730Z,65.18
2022-10-19T02:55:44.919Z,65.29
2022-10-19T02:58:11.729Z,65.91
2022-10-19T03:00:38.495Z,65.81
2022-10-19T03:03:05.368Z,66.16
2022-10-19T03:05:32.249Z,65.86
2022-10-19T03:07:59.100Z,65.81
2022-10-19T03:10:26.376Z,66.60
2022-10-19T03:12:53.212Z,67.01
2022-10-19T03:15:20.310Z,65.99
2022-10-19T03:17:47.579Z,65.42
2022-10-19T03:20:14.458Z,65.91
2022-10-19T03:22:41.258Z,65.62
2022-10-19T03:25:08.901Z,66.29
2022-10-19T03:27:36.225Z,67.16
2022-10-19T03:30:03.861Z,67.60
2022-10-19T03:32:31.169Z,66.70
2022-10-19T03:34:57.877Z,66.17
2022-10-19T03:37:24.753Z,66.81
2022-10-19T03:39:51.859Z,66.02
2022-10-19T03:42:18.678Z,67.02
2022-10-19T03:44:45.551Z,66.71
2022-10-19T03:47:14.471Z,67.03
2022-10-19T03:49:41.302Z,67.71
2022-10-19T03:52:10.329Z,67.30
2022-10-19T03:54:38.615Z,66.99
2022-10-19T03:57:05.497Z,66.99
2022-10-19T03:59:37.813Z,65.22
2022-10-19T04:02:10.103Z,65.35
2022-10-19T04:04:51.931Z,65.23
2022-10-19T04:07:33.506Z,65.63
2022-10-19T04:15:44.291Z,65.40
2022-10-19T04:18:11.143Z,64.96
2022-10-19T04:20:41.418Z,65.15
2022-10-19T04:23:08.503Z,64.50
2022-10-19T04:25:35.458Z,64.00
2022-10-19T04:28:02.408Z,64.07
2022-10-19T04:30:29.638Z,63.24
2022-10-19T04:32:56.496Z,62.73
2022-10-19T04:35:23.290Z,62.96
2022-10-19T04:37:50.539Z,63.37
2022-10-19T04:40:17.450Z,64.44
2022-10-19T04:42:44.348Z,64.39
2022-10-19T04:45:12.068Z,65.63
2022-10-19T04:47:39.008Z,66.54
2022-10-19T04:50:06.250Z,65.53
2022-10-19T04:52:33.621Z,66.20
2022-10-19T04:55:00.421Z,67.29
2022-10-19T04:57:27.312Z,66.65
2022-10-19T04:59:54.463Z,66.79
2022-10-19T05:02:21.237Z,66.83
2022-10-19T05:04:48.494Z,66.53
2022-10-19T05:07:15.700Z,66.67
2022-10-19T05:09:42.735Z,67.10
2022-10-19T05:12:09.533Z,66.93
2022-10-19T05:14:39.031Z,66.10
2022-10-19T05:17:08.686Z,65.53
2022-10-19T05:19:35.476Z,64.84
2022-10-19T05:22:02.550Z,63.74
2022-10-19T05:24:29.304Z,63.18
2022-10-19T05:26:56.171Z,63.13
2022-10-19T05:29:23.359Z,63.01
2022-10-19T05:31:50.335Z,62.91
2022-10-19T05:34:17.170Z,63.58
2022-10-19T05:36:44.291Z,63.23
2022-10-19T05:39:16.621Z,63.03
2022-10-19T05:41:47.452Z,63.33
2022-10-19T05:44:18.145Z,63.41
2022-10-19T05:46:45.953Z,63.21
2022-10-19T05:49:14.912Z,62.83
2022-10-19T05:51:46.413Z,62.32
2022-10-19T05:54:14.347Z,62.13
2022-10-19T05:56:42.677Z,61.88
2022-10-19T05:59:13.252Z,61.70
2022-10-19T06:01:46.992Z,62.32
2022-10-19T06:04:22.374Z,62.51
2022-10-19T06:06:52.892Z,62.66
2022-10-19T06:09:19.918Z,62.91
2022-10-19T06:11:48.408Z,62.73
2022-10-19T06:14:16.707Z,63.97
2022-10-19T06:16:43.828Z,64.67
2022-10-19T06:19:11.065Z,63.67
2022-10-19T06:21:43.390Z,62.61
2022-10-19T06:24:15.211Z,61.35
2022-10-19T06:29:38.852Z,62.13
2022-10-19T06:32:05.940Z,62.79
2022-10-19T06:34:32.864Z,61.29
2022-10-19T06:37:00.255Z,60.86
2022-10-19T06:39:27.292Z,61.89
2022-10-19T06:41:54.054Z,63.42
2022-10-19T06:44:21.106Z,64.03
2022-10-19T06:46:48.248Z,61.76
2022-10-19T06:49:15.180Z,61.36
2022-10-19T06:51:42.169Z,61.35
2022-10-19T06:54:08.976Z,60.40
2022-10-19T06:56:36.240Z,60.80
2022-10-19T06:59:03.347Z,58.50
2022-10-19T07:01:30.466Z,56.50
2022-10-19T07:03:57.334Z,54.97
2022-10-19T07:06:24.354Z,53.59
2022-10-19T07:08:52.936Z,54.32
2022-10-19T07:11:21.779Z,54.09
2022-10-19T07:13:48.955Z,52.57
2022-10-19T07:16:20.939Z,51.50
2022-10-19T07:18:50.464Z,54.85
2022-10-19T07:21:18.058Z,54.63
2022-10-19T07:23:46.543Z,51.54
2022-10-19T07:26:21.834Z,50.21
2022-10-19T07:28:49.516Z,49.95
2022-10-19T07:31:19.494Z,48.39
2022-10-19T07:33:47.977Z,50.67
2022-10-19T07:36:15.099Z,49.38
2022-10-19T07:38:41.862Z,50.20
2022-10-19T07:41:14.370Z,50.65
2022-10-19T07:43:43.196Z,51.22
2022-10-19T07:46:16.196Z,49.75
2022-10-19T07:48:44.253Z,50.57
2022-10-19T07:51:13.147Z,47.22
2022-10-19T07:53:40.215Z,46.58
2022-10-19T07:56:13.397Z,45.51
2022-10-19T07:58:41.573Z,45.53
2022-10-19T08:01:11.696Z,44.19
2022-10-19T08:06:26.235Z,42.38
2022-10-19T08:08:54.868Z,43.06
2022-10-19T08:11:25.854Z,41.36
2022-10-19T08:13:53.261Z,41.13
2022-10-19T08:16:35.055Z,40.91
2022-10-19T08:19:04.863Z,39.58
2022-10-19T08:21:31.776Z,40.16
2022-10-19T08:23:59.322Z,39.61
2022-10-19T08:26:30.060Z,39.38
2022-10-19T08:29:05.214Z,39.04
2022-10-19T08:31:32.812Z,37.63
2022-10-19T08:33:59.655Z,37.53
2022-10-19T08:36:26.757Z,39.00
2022-10-19T08:38:53.732Z,39.02
2022-10-19T08:41:46.412Z,39.54
2022-10-19T08:44:34.878Z,38.03
2022-10-19T08:47:39.158Z,38.46
2022-10-19T08:50:24.052Z,37.31
2022-10-19T08:53:16.617Z,39.67
2022-10-19T08:55:59.789Z,39.51
2022-10-19T08:58:51.733Z,37.53
2022-10-19T09:01:46.612Z,36.64
2022-10-19T09:04:33.974Z,36.06
2022-10-19T09:07:36.355Z,34.57
2022-10-19T09:10:16.062Z,34.50
2022-10-19T09:13:05.667Z,32.80
2022-10-19T09:15:41.779Z,33.73
2022-10-19T09:18:18.816Z,32.95
2022-10-19T09:20:49.341Z,33.27
2022-10-19T09:23:39.249Z,32.46
2022-10-19T09:26:20.780Z,33.00
2022-10-19T09:28:55.952Z,32.07
2022-10-19T09:31:33.430Z,32.64
2022-10-19T09:34:36.575Z,32.62
2022-10-19T09:39:57.260Z,31.75
2022-10-19T09:42:34.035Z,32.32
2022-10-19T09:45:11.735Z,31.57
2022-10-19T09:47:41.215Z,31.64
2022-10-19T09:50:08.254Z,30.95
2022-10-19T09:52:38.577Z,30.54
2022-10-19T09:55:24.026Z,31.09
2022-10-19T09:57:59.280Z,30.33
2022-10-19T10:00:42.860Z,30.18
2022-10-19T10:03:32.276Z,30.60
2022-10-19T10:06:05.016Z,31.54
2022-10-19T10:08:35.788Z,31.36
2022-10-19T10:11:30.337Z,30.68
2022-10-19T10:14:10.072Z,29.58
2022-10-19T10:16:37.375Z,29.95
2022-10-19T10:19:11.339Z,29.76
2022-10-19T10:21:50.776Z,29.77
2022-10-19T10:24:22.101Z,29.52
2022-10-19T10:26:56.945Z,28.83
2022-10-19T10:29:26.891Z,29.03
2022-10-19T10:32:03.772Z,28.54
2022-10-19T10:35:00.964Z,27.86
2022-10-19T10:37:40.028Z,27.09
2022-10-19T10:40:28.611Z,28.24
2022-10-19T10:43:01.787Z,28.20
2022-10-19T10:45:36.998Z,28.54
2022-10-19T10:48:31.480Z,28.64
2022-10-19T10:51:01.016Z,28.51
2022-10-19T10:53:38.259Z,28.46
2022-10-19T10:56:18.111Z,27.53
2022-10-19T10:59:04.335Z,27.70
2022-10-19T11:01:40.929Z,26.64
2022-10-19T11:04:21.859Z,26.12
2022-10-19T11:06:55.933Z,26.61
2022-10-19T11:09:38.797Z,26.72
2022-10-19T11:12:12.512Z,26.63
2022-10-19T11:14:56.290Z,26.30
2022-10-19T11:17:28.332Z,25.71
2022-10-19T11:19:55.573Z,26.48
2022-10-19T11:22:30.283Z,25.46
2022-10-19T11:25:29.577Z,26.30
2022-10-19T11:28:19.947Z,26.34
2022-10-19T11:31:13.350Z,26.26
2022-10-19T11:33:52.228Z,25.76
2022-10-19T11:36:51.222Z,25.66
2022-10-19T11:39:18.455Z,25.36
2022-10-19T11:41:56.496Z,24.98
2022-10-19T11:44:48.751Z,24.77
2022-10-19T11:47:33.137Z,24.91
2022-10-19T11:50:12.467Z,25.13
2022-10-19T11:52:57.899Z,25.17
2022-10-19T11:55:38.221Z,25.16
2022-10-19T11:58:46.820Z,24.65
2022-10-19T12:01:36.711Z,24.15
2022-10-19T12:04:21.941Z,25.46
2022-10-19T12:07:08.357Z,24.55
2022-10-19T12:09:38.137Z,24.37
2022-10-19T12:12:24.314Z,24.33
2022-10-19T12:14:57.432Z,25.17
2022-10-19T12:17:30.968Z,25.45
2022-10-19T12:20:05.954Z,25.25
2022-10-19T12:22:36.011Z,24.94
2022-10-19T12:25:03.218Z,24.24
2022-10-19T12:27:37.768Z,24.45
2022-10-19T12:30:08.733Z,24.46
2022-10-19T12:33:03.064Z,24.59
2022-10-19T12:35:39.735Z,25.30
2022-10-19T12:38:14.649Z,24.98
2022-10-19T12:41:01.399Z,24.97
2022-10-19T12:44:01.696Z,26.02
2022-10-19T12:47:00.829Z,26.14
2022-10-19T12:49:31.453Z,25.66
2022-10-19T12:52:01.114Z,25.93
2022-10-19T12:54:33.386Z,26.21
2022-10-19T12:57:04.180Z,25.68
2022-10-19T12:59:36.941Z,26.21
2022-10-19T13:02:27.295Z,26.55
2022-10-19T13:04:54.771Z,25.88
2022-10-19T13:07:33.401Z,25.90
2022-10-19T13:10:05.049Z,26.32
2022-10-19T13:12:52.514Z,26.42
2022-10-19T13:15:37.744Z,26.24
2022-10-19T13:18:12.458Z,25.90
2022-10-19T13:23:07.369Z,26.59
2022-10-19T13:25:35.661Z,26.57
2022-10-19T13:28:08.388Z,26.34
2022-10-19T13:30:38.172Z,26.03
2022-10-19T13:33:23.315Z,26.41
2022-10-19T13:35:59.227Z,26.98
2022-10-19T13:38:32.815Z,27.49
2022-10-19T13:41:10.540Z,26.74
2022-10-19T13:43:49.332Z,26.82
2022-10-19T13:46:20.587Z,27.26
2022-10-19T13:49:27.805Z,26.97
2022-10-19T13:52:39.152Z,26.67
2022-10-19T13:55:33.610Z,26.96
2022-10-19T13:58:31.106Z,26.74
2022-10-19T14:01:27.414Z,27.06
2022-10-19T14:04:33.837Z,26.60
2022-10-19T14:07:15.171Z,26.51
2022-10-19T14:09:58.368Z,26.69
2022-10-19T14:12:30.295Z,26.98
2022-10-19T14:14:57.311Z,26.76
2022-10-19T14:17:26.919Z,26.78
2022-10-19T14:19:56.890Z,27.58
2022-10-19T14:22:36.379Z,27.22
2022-10-19T14:25:21.179Z,27.98
2022-10-19T14:27:54.180Z,28.35
2022-10-19T14:30:29.946Z,28.94
2022-10-19T14:32:59.553Z,28.40
2022-10-19T14:35:35.783Z,28.28
2022-10-19T14:38:06.275Z,28.73
2022-10-19T14:40:41.232Z,27.87
2022-10-19T14:43:34.705Z,28.23
2022-10-19T14:46:07.608Z,29.17
2022-10-19T14:48:40.252Z,29.04
2022-10-19T14:51:17.495Z,29.56
2022-10-19T14:54:01.458Z,29.92
2022-10-19T14:56:39.057Z,30.88
2022-10-19T14:59:25.669Z,31.36
2022-10-19T15:02:00.130Z,31.70
2022-10-19T15:04:37.133Z,32.78
2022-10-19T15:07:14.106Z,32.65
2022-10-19T15:09:49.382Z,33.69
2022-10-19T15:12:20.398Z,34.03
2022-10-19T15:14:48.733Z,33.86
2022-10-19T15:17:26.691Z,34.26
2022-10-19T15:19:54.551Z,34.77
2022-10-19T15:22:22.616Z,34.98
2022-10-19T15:25:07.434Z,35.47
2022-10-19T15:27:37.572Z,35.88
2022-10-19T15:30:24.332Z,36.79
2022-10-19T15:33:02.366Z,36.87
2022-10-19T15:35:35.615Z,36.91
2022-10-19T15:38:08.255Z,37.51
2022-10-19T15:40:38.132Z,37.87
2022-10-19T15:43:32.501Z,38.82
2022-10-19T15:46:21.232Z,38.89
2022-10-19T15:48:52.498Z,38.96
2022-10-19T15:51:21.975Z,39.59
2022-10-19T15:53:50.733Z,39.49
2022-10-19T15:56:17.745Z,39.43
2022-10-19T15:58:44.650Z,40.06
2022-10-19T16:01:17.812Z,40.76
2022-10-19T16:03:45.855Z,41.26
2022-10-19T16:06:13.071Z,41.34
2022-10-19T16:08:39.998Z,41.32
2022-10-19T16:11:12.757Z,41.50
2022-10-19T16:13:39.543Z,42.78
2022-10-19T16:16:11.534Z,43.49
2022-10-19T16:18:38.779Z,43.58
2022-10-19T16:21:05.809Z,43.95
2022-10-19T16:23:33.731Z,44.15
2022-10-19T16:26:02.303Z,44.05
2022-10-19T16:28:29.020Z,43.98
2022-10-19T16:30:55.956Z,44.07
2022-10-19T16:33:23.452Z,44.70
2022-10-19T16:35:50.215Z,45.40
2022-10-19T16:38:17.502Z,45.87
2022-10-19T16:40:44.257Z,45.61
2022-10-19T16:43:11.213Z,44.81
2022-10-19T16:45:42.660Z,44.53
2022-10-19T16:48:12.612Z,44.12
2022-10-19T16:50:39.837Z,43.96
2022-10-19T16:53:11.344Z,44.31
2022-10-19T16:55:38.655Z,44.86
2022-10-19T16:58:06.130Z,44.89
2022-10-19T17:00:33.665Z,45.23
2022-10-19T17:03:00.488Z,45.95
2022-10-19T17:05:27.355Z,46.10
2022-10-19T17:07:54.273Z,46.50
2022-10-19T17:10:21.138Z,46.96
2022-10-19T17:12:48.011Z,47.80
2022-10-19T17:15:41.506Z,48.48
2022-10-19T17:18:02.449Z,48.43
2022-10-19T17:20:29.492Z,48.75
2022-10-19T17:22:56.176Z,49.01
2022-10-19T17:25:22.940Z,49.16
2022-10-19T17:27:53.067Z,49.38
2022-10-19T17:30:20.014Z,49.74
2022-10-19T17:32:50.017Z,49.65
2022-10-19T17:35:17.142Z,50.04
2022-10-19T17:37:43.950Z,50.40
2022-10-19T17:40:11.278Z,50.48
2022-10-19T17:42:39.070Z,50.49
2022-10-19T17:45:06.448Z,50.44
2022-10-19T17:47:34.315Z,50.62
2022-10-19T17:50:01.532Z,50.58
2022-10-19T17:52:28.294Z,50.67
2022-10-19T17:57:42.259Z,50.83
2022-10-19T18:00:09.734Z,51.03
2022-10-19T18:02:36.515Z,50.77
2022-10-19T18:05:03.546Z,50.80
2022-10-19T18:07:30.733Z,51.08
2022-10-19T18:09:57.571Z,51.27
2022-10-19T18:12:24.415Z,52.13
2022-10-19T18:14:51.315Z,52.07
2022-10-19T18:17:18.371Z,52.02
2022-10-19T18:19:45.461Z,51.79
2022-10-19T18:22:12.491Z,51.78
2022-10-19T18:24:39.374Z,52.88
2022-10-19T18:27:06.354Z,52.64
2022-10-19T18:29:33.499Z,53.51
2022-10-19T18:32:00.379Z,53.06
2022-10-19T18:34:27.372Z,52.98
2022-10-19T18:36:54.741Z,53.03
2022-10-19T18:39:22.900Z,53.87
2022-10-19T18:41:51.986Z,54.43
2022-10-19T18:44:23.626Z,54.22
2022-10-19T18:46:53.510Z,54.36
2022-10-19T18:49:20.498Z,54.66
2022-10-19T18:51:52.317Z,54.64
2022-10-19T18:54:22.419Z,54.47
2022-10-19T18:56:49.414Z,54.77
2022-10-19T18:59:16.361Z,55.04
2022-10-19T19:01:51.221Z,55.93
2022-10-19T19:04:18.215Z,57.08
2022-10-19T19:06:45.898Z,57.39
2022-10-19T19:09:13.289Z,57.77
2022-10-19T19:11:41.256Z,57.74
2022-10-19T19:14:15.432Z,57.98
2022-10-19T19:16:43.656Z,57.91
2022-10-19T19:19:12.857Z,57.66
2022-10-19T19:21:40.689Z,57.22
2022-10-19T19:24:07.932Z,57.23
2022-10-19T19:26:39.571Z,56.40
2022-10-19T19:29:06.653Z,56.29
2022-10-19T19:31:33.987Z,56.29
2022-10-19T19:34:01.733Z,56.19
2022-10-19T19:36:29.366Z,56.98
2022-10-19T19:38:56.970Z,57.57
2022-10-19T19:44:14.020Z,57.20
2022-10-19T19:46:41.972Z,57.52
2022-10-19T19:49:09.035Z,56.79
2022-10-19T19:51:35.892Z,56.56
2022-10-19T19:54:03.214Z,56.52
2022-10-19T19:56:30.169Z,56.03
2022-10-19T19:58:59.070Z,55.45
2022-10-19T20:01:34.424Z,55.54
2022-10-19T20:06:28.748Z,55.06
2022-10-19T20:08:56.490Z,54.88
2022-10-19T20:11:25.208Z,55.36
2022-10-19T20:13:58.373Z,54.87
2022-10-19T20:16:29.816Z,55.28
2022-10-19T20:19:10.738Z,56.36
2022-10-19T20:21:38.338Z,56.36
2022-10-19T20:24:05.593Z,57.12
2022-10-19T20:26:32.793Z,57.17
2022-10-19T20:29:02.574Z,57.99
2022-10-19T20:31:30.505Z,57.88
2022-10-19T20:33:57.370Z,58.36
2022-10-19T20:36:26.413Z,58.25
2022-10-19T20:38:55.771Z,58.79
2022-10-19T20:41:25.456Z,58.37
2022-10-19T20:43:53.868Z,58.42
2022-10-19T20:46:23.452Z,58.77
2022-10-19T20:48:51.945Z,59.29
2022-10-19T20:51:27.619Z,59.67
2022-10-19T20:53:59.425Z,59.56
2022-10-19T20:56:32.086Z,59.88
2022-10-19T20:59:06.144Z,59.82
2022-10-19T21:01:35.197Z,60.28
2022-10-19T21:04:04.348Z,60.59
2022-10-19T21:06:34.425Z,61.16
2022-10-19T21:09:02.003Z,61.26
2022-10-19T21:11:32.128Z,61.08
2022-10-19T21:14:04.617Z,60.93
2022-10-19T21:16:32.091Z,60.60
2022-10-19T21:19:03.222Z,60.80
2022-10-19T21:21:35.452Z,60.59
2022-10-19T21:24:10.734Z,60.65
2022-10-19T21:26:38.682Z,60.69
2022-10-19T21:29:08.436Z,61.10
2022-10-19T21:31:36.810Z,61.05
2022-10-19T21:34:08.498Z,60.88
2022-10-19T21:36:35.583Z,60.92
2022-10-19T21:39:02.790Z,60.46
2022-10-19T21:41:30.134Z,60.27
2022-10-19T21:43:57.056Z,60.35
2022-10-19T21:46:23.911Z,60.46
2022-10-19T21:48:51.855Z,60.86
2022-10-19T21:51:21.150Z,60.99
2022-10-19T21:53:49.535Z,61.03
2022-10-19T21:56:17.133Z,61.28
2022-10-19T21:58:48.899Z,61.46
2022-10-19T22:01:19.759Z,61.23
2022-10-19T22:03:47.025Z,61.36
2022-10-19T22:06:15.653Z,61.02
2022-10-19T22:08:46.893Z,61.03
2022-10-19T22:11:15.230Z,61.18
2022-10-19T22:13:42.299Z,61.19
2022-10-19T22:16:15.489Z,61.68
2022-10-19T22:18:42.557Z,61.90
2022-10-19T22:21:15.931Z,61.70
2022-10-19T22:23:43.449Z,61.26
2022-10-19T22:26:20.521Z,62.07
2022-10-19T22:28:49.380Z,61.80
2022-10-19T22:31:16.153Z,61.45
2022-10-19T22:33:43.021Z,61.32
2022-10-19T22:36:11.619Z,62.11
2022-10-19T22:38:38.496Z,62.94
2022-10-19T22:41:05.472Z,62.82
2022-10-19T22:43:32.435Z,62.73
2022-10-19T22:45:59.330Z,62.55
2022-10-19T22:48:26.523Z,62.31
2022-10-19T22:50:54.094Z,62.00
2022-10-19T22:53:22.611Z,62.44
2022-10-19T22:55:50.495Z,62.08
2022-10-19T22:58:18.010Z,61.96
2022-10-19T23:00:44.892Z,61.82
2022-10-19T23:03:11.876Z,61.98
2022-10-19T23:05:38.608Z,61.79
2022-10-19T23:08:05.612Z,62.03
2022-10-19T23:10:32.744Z,61.90
2022-10-19T23:12:59.622Z,63.11
2022-10-19T23:15:26.677Z,63.79
2022-10-19T23:17:53.810Z,63.64
2022-10-19T23:20:20.572Z,63.94
2022-10-19T23:22:47.641Z,64.13
2022-10-19T23:25:14.472Z,63.67
2022-10-19T23:27:41.251Z,63.44
2022-10-19T23:30:08.417Z,63.42
2022-10-19T23:32:35.379Z,63.37
2022-10-19T23:35:02.213Z,63.84
2022-10-19T23:37:29.309Z,63.52
2022-10-19T23:39:56.243Z,63.89
2022-10-19T23:42:22.957Z,64.38
2022-10-19T23:44:49.914Z,64.22
2022-10-19T23:47:17.031Z,64.13
2022-10-19T23:49:43.896Z,64.58
2022-10-19T23:52:10.732Z,64.47
2022-10-19T23:54:37.665Z,64.87
2022-10-19T23:57:04.667Z,65.73
2022-10-19T23:59:32.295Z,65.63
